createdAt,value
2022-11-02T00:00:16.435Z,18.30
2022-11-02T00:02:42.945Z,18.20
2022-11-02T00:05:09.518Z,18.20
2022-11-02T00:07:35.977Z,18.30
2022-11-02T00:10:02.436Z,18.30
2022-11-02T00:12:28.911Z,18.30
2022-11-02T00:14:55.403Z,18.30
2022-11-02T00:17:21.880Z,18.30
2022-11-02T00:19:49.555Z,18.20
2022-11-02T00:22:16.039Z,18.20
2022-11-02T00:24:42.519Z,18.30
2022-11-02T00:27:08.984Z,18.30
2022-11-02T00:29:35.456Z,18.20
2022-11-02T00:32:01.948Z,18.20
2022-11-02T00:34:28.430Z,18.20
2022-11-02T00:36:55.661Z,18.20
2022-11-02T00:39:22.252Z,18.20
2022-11-02T00:41:48.742Z,18.30
2022-11-02T00:44:15.216Z,18.30
2022-11-02T00:46:41.699Z,18.10
2022-11-02T00:49:08.170Z,18.10
2022-11-02T00:51:34.640Z,18.10
2022-11-02T00:54:01.117Z,18.00
2022-11-02T00:56:27.606Z,18.00
2022-11-02T00:58:54.079Z,18.10
2022-11-02T01:01:20.689Z,18.10
2022-11-02T01:03:47.257Z,18.10
2022-11-02T01:06:13.725Z,18.20
2022-11-02T01:08:40.209Z,18.20
2022-11-02T01:11:06.708Z,18.20
2022-11-02T01:13:33.201Z,18.10
2022-11-02T01:15:59.683Z,18.10
2022-11-02T01:18:26.157Z,18.10
2022-11-02T01:20:52.641Z,18.10
2022-11-02T01:23:19.123Z,18.10
2022-11-02T01:25:45.612Z,18.10
2022-11-02T01:28:12.106Z,18.10
2022-11-02T01:30:38.582Z,18.10
2022-11-02T01:33:05.040Z,18.10
2022-11-02T01:35:31.516Z,18.10
2022-11-02T01:37:59.000Z,18.20
2022-11-02T01:40:25.498Z,18.10
2022-11-02T01:42:51.978Z,18.10
2022-11-02T01:45:18.455Z,18.00
2022-11-02T01:47:44.931Z,18.00
2022-11-02T01:50:11.412Z,18.00
2022-11-02T01:52:37.896Z,18.00
2022-11-02T01:55:04.394Z,18.00
2022-11-02T01:57:30.864Z,18.10
2022-11-02T01:59:57.348Z,18.10
2022-11-02T02:02:23.966Z,18.00
2022-11-02T02:04:50.489Z,18.10
2022-11-02T02:07:18.065Z,18.00
2022-11-02T02:09:48.671Z,18.00
2022-11-02T02:12:17.808Z,18.10
2022-11-02T02:14:44.289Z,18.10
2022-11-02T02:17:10.764Z,18.00
2022-11-02T02:19:37.227Z,18.10
2022-11-02T02:22:03.702Z,18.10
2022-11-02T02:24:30.170Z,18.00
2022-11-02T02:26:56.639Z,18.00
2022-11-02T02:29:23.109Z,18.00
2022-11-02T02:31:49.597Z,18.10
2022-11-02T02:34:16.071Z,18.10
2022-11-02T02:36:42.565Z,18.10
2022-11-02T02:39:09.052Z,18.10
2022-11-02T02:41:35.532Z,18.10
2022-11-02T02:44:02.008Z,18.00
2022-11-02T02:46:29.083Z,18.10
2022-11-02T02:48:55.536Z,18.10
2022-11-02T02:51:22.007Z,18.00
2022-11-02T02:53:48.486Z,18.00
2022-11-02T02:56:14.970Z,18.00
2022-11-02T02:58:41.435Z,18.10
2022-11-02T03:01:07.901Z,18.00
2022-11-02T03:03:34.364Z,18.10
2022-11-02T03:06:00.861Z,18.10
2022-11-02T03:08:27.326Z,18.10
2022-11-02T03:10:53.798Z,18.10
2022-11-02T03:13:20.269Z,18.10
2022-11-02T03:15:46.752Z,18.00
2022-11-02T03:18:13.225Z,18.00
2022-11-02T03:20:39.693Z,18.00
2022-11-02T03:23:06.177Z,18.00
2022-11-02T03:25:32.641Z,18.00
2022-11-02T03:27:59.122Z,18.00
2022-11-02T03:30:25.617Z,18.00
2022-11-02T03:32:52.101Z,18.00
2022-11-02T03:35:18.608Z,18.00
2022-11-02T03:37:45.096Z,18.10
2022-11-02T03:40:11.583Z,18.00
2022-11-02T03:42:38.073Z,18.10
2022-11-02T03:45:04.541Z,18.10
2022-11-02T03:47:31.022Z,18.10
2022-11-02T03:49:57.511Z,18.10
2022-11-02T03:52:23.981Z,18.10
2022-11-02T03:54:50.463Z,18.00
2022-11-02T03:57:16.901Z,18.00
2022-11-02T03:59:43.384Z,18.00
2022-11-02T04:02:10.038Z,18.00
2022-11-02T04:04:36.695Z,18.00
2022-11-02T04:07:03.164Z,18.00
2022-11-02T04:09:29.670Z,18.00
2022-11-02T04:11:56.154Z,18.00
2022-11-02T04:14:22.652Z,18.00
2022-11-02T04:16:49.124Z,18.10
2022-11-02T04:19:15.592Z,18.00
2022-11-02T04:21:42.073Z,18.00
2022-11-02T04:24:11.134Z,18.00
2022-11-02T04:26:37.623Z,18.00
2022-11-02T04:29:04.103Z,18.00
2022-11-02T04:31:30.580Z,18.00
2022-11-02T04:33:57.044Z,18.00
2022-11-02T04:36:23.523Z,17.90
2022-11-02T04:38:49.986Z,17.90
2022-11-02T04:41:16.456Z,17.90
2022-11-02T04:43:42.937Z,17.90
2022-11-02T04:46:09.413Z,18.00
2022-11-02T04:48:35.891Z,18.00
2022-11-02T04:51:02.375Z,17.90
2022-11-02T04:53:28.845Z,17.90
2022-11-02T04:55:55.313Z,17.90
2022-11-02T04:58:21.788Z,17.90
2022-11-02T05:00:48.339Z,17.80
2022-11-02T05:03:14.805Z,17.80
2022-11-02T05:05:41.298Z,17.90
2022-11-02T05:08:07.838Z,18.00
2022-11-02T05:10:34.327Z,17.90
2022-11-02T05:13:00.805Z,17.90
2022-11-02T05:15:27.281Z,17.90
2022-11-02T05:17:53.768Z,17.90
2022-11-02T05:20:20.293Z,17.90
2022-11-02T05:22:46.763Z,17.90
2022-11-02T05:25:13.244Z,17.90
2022-11-02T05:27:39.713Z,17.90
2022-11-02T05:30:06.169Z,17.80
2022-11-02T05:32:32.647Z,17.80
2022-11-02T05:34:59.107Z,17.80
2022-11-02T05:37:25.580Z,17.90
2022-11-02T05:39:52.062Z,17.80
2022-11-02T05:42:18.567Z,17.80
2022-11-02T05:44:45.031Z,17.80
2022-11-02T05:47:11.503Z,17.80
2022-11-02T05:49:37.986Z,17.80
2022-11-02T05:52:04.493Z,17.80
2022-11-02T05:54:30.980Z,17.90
2022-11-02T05:56:57.451Z,17.80
2022-11-02T05:59:23.929Z,17.80
2022-11-02T06:01:50.481Z,17.80
2022-11-02T06:04:17.036Z,17.90
2022-11-02T06:06:43.533Z,17.90
2022-11-02T06:09:11.236Z,17.80
2022-11-02T06:11:37.711Z,17.80
2022-11-02T06:14:04.170Z,17.80
2022-11-02T06:16:30.645Z,17.80
2022-11-02T06:18:57.116Z,17.90
2022-11-02T06:21:23.605Z,17.80
2022-11-02T06:23:53.369Z,17.80
2022-11-02T06:26:19.865Z,17.80
2022-11-02T06:28:46.338Z,17.80
2022-11-02T06:31:12.842Z,17.80
2022-11-02T06:33:39.312Z,17.80
2022-11-02T06:36:05.825Z,17.80
2022-11-02T06:38:32.293Z,17.70
2022-11-02T06:40:58.806Z,17.80
2022-11-02T06:43:25.484Z,17.80
2022-11-02T06:45:52.219Z,17.80
2022-11-02T06:48:18.703Z,17.70
2022-11-02T06:50:45.186Z,17.70
2022-11-02T06:53:11.688Z,17.70
2022-11-02T06:55:38.176Z,17.80
2022-11-02T06:58:04.662Z,17.80
2022-11-02T07:00:31.203Z,17.80
2022-11-02T07:02:57.840Z,17.80
2022-11-02T07:05:24.306Z,17.70
2022-11-02T07:07:50.778Z,17.80
2022-11-02T07:10:17.290Z,17.70
2022-11-02T07:12:43.777Z,17.80
2022-11-02T07:15:10.253Z,17.80
2022-11-02T07:17:36.746Z,17.80
2022-11-02T07:20:03.226Z,17.80
2022-11-02T07:22:29.707Z,17.70
2022-11-02T07:24:56.176Z,17.70
2022-11-02T07:27:22.664Z,17.70
2022-11-02T07:29:49.130Z,17.80
2022-11-02T07:32:15.608Z,17.70
2022-11-02T07:34:42.045Z,17.70
2022-11-02T07:37:08.525Z,17.70
2022-11-02T07:39:35.323Z,17.70
2022-11-02T07:42:01.835Z,17.60
2022-11-02T07:44:28.362Z,17.70
2022-11-02T07:46:54.895Z,17.70
2022-11-02T07:49:21.818Z,17.80
2022-11-02T07:51:48.341Z,17.70
2022-11-02T07:54:17.313Z,17.70
2022-11-02T07:56:43.793Z,17.70
2022-11-02T07:59:10.272Z,17.70
2022-11-02T08:01:36.851Z,17.70
2022-11-02T08:04:03.400Z,17.80
2022-11-02T08:06:29.897Z,17.70
2022-11-02T08:08:56.363Z,17.80
2022-11-02T08:11:22.849Z,17.70
2022-11-02T08:13:49.333Z,17.70
2022-11-02T08:16:15.815Z,17.70
2022-11-02T08:18:42.318Z,17.70
2022-11-02T08:21:08.819Z,17.70
2022-11-02T08:23:35.290Z,17.70
2022-11-02T08:26:01.797Z,17.80
2022-11-02T08:28:28.271Z,17.70
2022-11-02T08:30:54.780Z,17.80
2022-11-02T08:33:21.270Z,17.80
2022-11-02T08:35:47.785Z,17.80
2022-11-02T08:38:14.277Z,17.70
2022-11-02T08:40:40.756Z,17.70
2022-11-02T08:43:07.252Z,17.70
2022-11-02T08:46:00.544Z,17.70
2022-11-02T08:48:20.233Z,17.70
2022-11-02T08:50:46.718Z,17.70
2022-11-02T08:53:13.189Z,17.70
2022-11-02T08:55:39.749Z,17.70
2022-11-02T08:58:06.634Z,17.70
2022-11-02T09:00:33.492Z,17.70
2022-11-02T09:03:00.042Z,17.80
2022-11-02T09:05:26.718Z,17.70
2022-11-02T09:07:53.208Z,17.70
2022-11-02T09:10:19.684Z,17.70
2022-11-02T09:12:46.168Z,17.70
2022-11-02T09:15:12.658Z,17.70
2022-11-02T09:17:41.379Z,17.70
2022-11-02T09:20:07.866Z,17.70
2022-11-02T09:22:34.352Z,17.70
2022-11-02T09:25:00.842Z,17.70
2022-11-02T09:27:27.367Z,17.70
2022-11-02T09:29:53.859Z,17.70
2022-11-02T09:32:20.337Z,17.70
2022-11-02T09:34:46.829Z,17.70
2022-11-02T09:37:13.302Z,17.70
2022-11-02T09:39:39.770Z,17.70
2022-11-02T09:42:06.257Z,17.70
2022-11-02T09:44:32.721Z,17.70
2022-11-02T09:47:49.000Z,17.70
2022-11-02T09:49:45.635Z,17.80
2022-11-02T09:52:12.128Z,17.70
2022-11-02T09:54:38.607Z,17.80
2022-11-02T09:57:05.084Z,17.80
2022-11-02T09:59:31.572Z,17.70
2022-11-02T10:01:58.052Z,17.70
2022-11-02T10:04:24.526Z,17.70
2022-11-02T10:06:51.007Z,17.70
2022-11-02T10:09:17.472Z,17.70
2022-11-02T10:11:43.954Z,17.70
2022-11-02T10:14:10.430Z,17.70
2022-11-02T10:16:36.944Z,17.70
2022-11-02T10:19:03.424Z,17.80
2022-11-02T10:21:29.914Z,17.70
2022-11-02T10:23:56.388Z,17.70
2022-11-02T10:26:22.870Z,17.80
2022-11-02T10:28:49.337Z,17.80
2022-11-02T10:31:15.951Z,17.80
2022-11-02T10:33:42.441Z,17.90
2022-11-02T10:36:24.198Z,17.80
2022-11-02T10:38:50.696Z,17.80
2022-11-02T10:41:17.196Z,17.80
2022-11-02T10:43:45.239Z,17.90
2022-11-02T10:46:14.776Z,17.80
2022-11-02T10:48:41.258Z,17.80
2022-11-02T10:51:07.746Z,17.90
2022-11-02T10:53:42.435Z,17.80
2022-11-02T10:56:09.202Z,17.80
2022-11-02T10:58:35.678Z,17.80
2022-11-02T11:01:02.262Z,17.80
2022-11-02T11:03:28.756Z,17.80
2022-11-02T11:05:59.512Z,17.90
2022-11-02T11:08:25.982Z,17.80
2022-11-02T11:10:52.479Z,17.80
2022-11-02T11:16:05.451Z,17.90
2022-11-02T11:21:18.400Z,17.90
2022-11-02T11:23:44.861Z,18.00
2022-11-02T11:26:11.348Z,17.90
2022-11-02T11:28:37.830Z,17.90
2022-11-02T11:31:04.342Z,18.00
2022-11-02T11:33:30.813Z,17.90
2022-11-02T11:35:57.316Z,17.90
2022-11-02T11:38:23.815Z,17.90
2022-11-02T11:40:50.311Z,17.90
2022-11-02T11:43:16.780Z,18.00
2022-11-02T11:45:43.261Z,18.00
2022-11-02T11:48:09.692Z,17.90
2022-11-02T11:50:36.172Z,17.90
2022-11-02T11:53:03.047Z,18.00
2022-11-02T11:55:29.798Z,18.00
2022-11-02T11:57:56.257Z,17.90
2022-11-02T12:00:22.742Z,18.00
2022-11-02T12:02:49.331Z,18.00
2022-11-02T12:05:15.924Z,18.00
2022-11-02T12:07:42.410Z,18.00
2022-11-02T12:10:08.910Z,18.00
2022-11-02T12:12:35.397Z,18.00
2022-11-02T12:15:06.569Z,18.00
2022-11-02T12:17:33.679Z,18.00
2022-11-02T12:20:00.190Z,18.10
2022-11-02T12:22:26.670Z,18.00
2022-11-02T12:24:53.134Z,18.00
2022-11-02T12:27:19.623Z,18.00
2022-11-02T12:29:46.088Z,18.00
2022-11-02T12:32:12.568Z,17.90
2022-11-02T12:34:39.036Z,18.00
2022-11-02T12:39:51.978Z,17.90
2022-11-02T12:42:18.470Z,18.00
2022-11-02T12:44:44.984Z,17.90
2022-11-02T12:47:11.468Z,17.90
2022-11-02T12:49:37.936Z,17.90
2022-11-02T12:52:04.416Z,18.00
2022-11-02T12:54:30.918Z,18.00
2022-11-02T12:56:57.381Z,18.00
2022-11-02T12:59:23.873Z,17.90
2022-11-02T13:01:50.474Z,18.10
2022-11-02T13:04:17.172Z,18.00
2022-11-02T13:06:43.715Z,18.10
2022-11-02T13:09:10.200Z,18.10
2022-11-02T13:11:36.691Z,18.10
2022-11-02T13:14:03.227Z,18.10
2022-11-02T13:16:29.742Z,18.10
2022-11-02T13:18:56.230Z,18.00
2022-11-02T13:21:22.731Z,18.10
2022-11-02T13:23:49.190Z,18.10
2022-11-02T13:26:15.693Z,18.10
2022-11-02T13:28:42.174Z,18.10
2022-11-02T13:31:12.919Z,18.00
2022-11-02T13:33:39.649Z,18.00
2022-11-02T13:36:06.155Z,18.10
2022-11-02T13:38:32.650Z,18.10
2022-11-02T13:40:59.144Z,18.10
2022-11-02T13:43:25.615Z,18.00
2022-11-02T13:45:52.104Z,18.00
2022-11-02T13:48:18.580Z,18.00
2022-11-02T13:50:45.053Z,18.10
2022-11-02T13:53:11.528Z,18.10
2022-11-02T13:55:41.405Z,18.10
2022-11-02T13:58:11.126Z,18.00
2022-11-02T14:00:37.622Z,18.10
2022-11-02T14:03:04.528Z,18.10
2022-11-02T14:05:31.258Z,18.00
2022-11-02T14:07:57.757Z,18.00
2022-11-02T14:10:24.265Z,18.00
2022-11-02T14:12:50.741Z,18.00
2022-11-02T14:15:17.229Z,18.00
2022-11-02T14:17:43.719Z,18.10
2022-11-02T14:20:10.250Z,18.00
2022-11-02T14:22:36.716Z,18.00
2022-11-02T14:25:03.216Z,18.00
2022-11-02T14:27:29.701Z,18.00
2022-11-02T14:29:56.189Z,18.00
2022-11-02T14:32:22.894Z,18.00
2022-11-02T14:34:50.989Z,18.00
2022-11-02T14:37:17.746Z,18.00
2022-11-02T14:39:44.224Z,18.00
2022-11-02T14:42:10.712Z,18.00
2022-11-02T14:44:37.190Z,18.00
2022-11-02T14:47:03.677Z,18.00
2022-11-02T14:49:30.140Z,18.00
2022-11-02T14:52:01.057Z,18.00
2022-11-02T14:54:30.037Z,18.00
2022-11-02T14:56:56.525Z,18.00
2022-11-02T14:59:22.999Z,17.90
2022-11-02T15:01:49.475Z,18.00
2022-11-02T15:04:16.121Z,18.00
2022-11-02T15:06:42.632Z,18.00
2022-11-02T15:09:09.093Z,18.00
2022-11-02T15:11:35.594Z,18.00
2022-11-02T15:14:02.076Z,18.00
2022-11-02T15:16:28.597Z,17.90
2022-11-02T15:18:55.069Z,18.00
2022-11-02T15:21:21.531Z,18.00
2022-11-02T15:23:48.005Z,18.00
2022-11-02T15:26:14.497Z,18.00
2022-11-02T15:28:40.995Z,18.00
2022-11-02T15:31:07.474Z,18.00
2022-11-02T15:33:33.966Z,18.00
2022-11-02T15:36:00.473Z,18.10
2022-11-02T15:38:32.641Z,18.10
2022-11-02T15:41:05.959Z,18.10
2022-11-02T15:43:32.846Z,18.10
2022-11-02T15:46:03.546Z,18.10
2022-11-02T15:48:34.703Z,18.20
2022-11-02T15:51:01.218Z,18.10
2022-11-02T15:53:27.683Z,18.10
2022-11-02T15:55:54.169Z,18.10
2022-11-02T15:58:20.659Z,18.10
2022-11-02T16:00:47.180Z,18.10
2022-11-02T16:03:13.725Z,18.10
2022-11-02T16:05:40.184Z,18.10
2022-11-02T16:08:20.812Z,18.10
2022-11-02T16:10:47.428Z,18.10
2022-11-02T16:13:13.921Z,18.00
2022-11-02T16:15:40.408Z,18.10
2022-11-02T16:18:07.131Z,18.00
2022-11-02T16:20:33.870Z,18.10
2022-11-02T16:23:00.361Z,18.10
2022-11-02T16:25:26.825Z,18.00
2022-11-02T16:27:53.304Z,18.10
2022-11-02T16:30:19.785Z,18.00
2022-11-02T16:32:46.271Z,18.00
2022-11-02T16:35:12.755Z,18.00
2022-11-02T16:37:39.232Z,18.00
2022-11-02T16:40:05.697Z,18.00
2022-11-02T16:42:32.185Z,18.00
2022-11-02T16:44:58.674Z,18.00
2022-11-02T16:47:25.165Z,18.00
2022-11-02T16:49:51.657Z,18.00
2022-11-02T16:52:18.130Z,18.00
2022-11-02T16:54:44.606Z,18.00
2022-11-02T16:57:12.020Z,18.00
2022-11-02T16:59:38.849Z,18.00
2022-11-02T17:02:05.539Z,17.90
2022-11-02T17:04:32.107Z,18.00
2022-11-02T17:06:58.593Z,18.00
2022-11-02T17:09:25.059Z,18.00
2022-11-02T17:11:51.571Z,18.00
2022-11-02T17:14:18.045Z,17.90
2022-11-02T17:16:44.515Z,18.00
2022-11-02T17:19:15.561Z,18.00
2022-11-02T17:21:42.410Z,18.00
2022-11-02T17:24:08.905Z,18.00
2022-11-02T17:26:35.373Z,18.00
2022-11-02T17:29:01.986Z,18.00
2022-11-02T17:31:28.470Z,17.90
2022-11-02T17:33:54.955Z,17.90
2022-11-02T17:36:21.454Z,17.90
2022-11-02T17:38:47.972Z,17.90
2022-11-02T17:41:14.446Z,17.90
2022-11-02T17:43:40.928Z,17.90
2022-11-02T17:46:07.393Z,17.90
2022-11-02T17:48:33.862Z,17.90
2022-11-02T17:51:00.330Z,17.90
2022-11-02T17:53:26.817Z,17.80
2022-11-02T17:55:53.291Z,17.90
2022-11-02T17:58:19.771Z,17.80
2022-11-02T18:00:46.288Z,17.90
2022-11-02T18:03:12.794Z,17.90
2022-11-02T18:05:39.271Z,17.80
2022-11-02T18:08:06.022Z,17.80
2022-11-02T18:10:32.745Z,17.80
2022-11-02T18:12:59.218Z,17.90
2022-11-02T18:15:25.703Z,17.90
2022-11-02T18:17:52.184Z,17.80
2022-11-02T18:20:18.671Z,17.80
2022-11-02T18:22:45.151Z,17.80
2022-11-02T18:25:11.680Z,17.80
2022-11-02T18:27:38.182Z,17.80
2022-11-02T18:30:04.657Z,17.80
2022-11-02T18:32:31.145Z,17.80
2022-11-02T18:34:57.668Z,17.80
2022-11-02T18:37:24.152Z,17.80
2022-11-02T18:39:50.636Z,17.80
2022-11-02T18:42:17.116Z,17.80
2022-11-02T18:44:43.609Z,17.80
2022-11-02T18:47:10.081Z,17.70
2022-11-02T18:49:36.572Z,17.70
2022-11-02T18:52:03.057Z,17.70
2022-11-02T18:54:29.527Z,17.70
2022-11-02T18:56:55.998Z,17.70
2022-11-02T18:59:22.493Z,17.70
2022-11-02T19:01:49.144Z,17.70
2022-11-02T19:04:17.555Z,17.70
2022-11-02T19:06:44.417Z,17.70
2022-11-02T19:09:10.885Z,17.70
2022-11-02T19:11:37.358Z,17.80
2022-11-02T19:14:03.840Z,17.70
2022-11-02T19:16:30.317Z,17.70
2022-11-02T19:18:56.805Z,17.70
2022-11-02T19:21:23.268Z,17.70
2022-11-02T19:23:49.743Z,17.80
2022-11-02T19:26:16.276Z,17.70
2022-11-02T19:28:42.772Z,17.70
2022-11-02T19:31:09.248Z,17.70
2022-11-02T19:33:35.723Z,17.70
2022-11-02T19:36:02.200Z,17.70
2022-11-02T19:38:28.674Z,17.80
2022-11-02T19:40:55.154Z,17.70
2022-11-02T19:43:21.622Z,17.60
2022-11-02T19:45:48.102Z,17.70
2022-11-02T19:48:14.573Z,17.60
2022-11-02T19:50:41.066Z,17.70
2022-11-02T19:53:07.545Z,17.70
2022-11-02T19:55:34.018Z,17.70
2022-11-02T19:58:00.487Z,17.70
2022-11-02T20:00:26.996Z,17.70
2022-11-02T20:02:53.529Z,17.60
2022-11-02T20:05:20.046Z,17.70
2022-11-02T20:07:46.510Z,17.60
2022-11-02T20:10:12.980Z,17.60
2022-11-02T20:12:39.474Z,17.60
2022-11-02T20:15:05.974Z,17.60
2022-11-02T20:17:46.603Z,17.60
2022-11-02T20:20:18.932Z,17.60
2022-11-02T20:22:45.418Z,17.60
2022-11-02T20:25:11.916Z,17.60
2022-11-02T20:27:38.398Z,17.50
2022-11-02T20:30:04.908Z,17.50
2022-11-02T20:32:31.403Z,17.60
2022-11-02T20:34:57.887Z,17.60
2022-11-02T20:37:24.389Z,17.60
2022-11-02T20:39:50.872Z,17.60
2022-11-02T20:42:17.344Z,17.60
2022-11-02T20:44:43.798Z,17.60
2022-11-02T20:47:10.265Z,17.50
2022-11-02T20:49:50.135Z,17.50
2022-11-02T20:52:17.281Z,17.50
2022-11-02T20:54:43.771Z,17.50
2022-11-02T20:57:10.237Z,17.50
2022-11-02T20:59:36.780Z,17.50
2022-11-02T21:02:03.342Z,17.50
2022-11-02T21:04:29.902Z,17.50
2022-11-02T21:06:56.388Z,17.50
2022-11-02T21:09:22.867Z,17.50
2022-11-02T21:11:49.349Z,17.60
2022-11-02T21:14:15.841Z,17.60
2022-11-02T21:16:42.339Z,17.50
2022-11-02T21:19:08.806Z,17.50
2022-11-02T21:21:35.297Z,17.50
2022-11-02T21:24:01.797Z,17.50
2022-11-02T21:26:28.316Z,17.50
2022-11-02T21:28:54.803Z,17.50
2022-11-02T21:31:21.299Z,17.50
2022-11-02T21:33:47.768Z,17.50
2022-11-02T21:36:14.278Z,17.50
2022-11-02T21:38:40.741Z,17.50
2022-11-02T21:41:07.239Z,17.50
2022-11-02T21:43:33.715Z,17.50
2022-11-02T21:46:00.198Z,17.50
2022-11-02T21:48:26.747Z,17.50
2022-11-02T21:50:53.299Z,17.60
2022-11-02T21:53:19.778Z,17.60
2022-11-02T21:55:46.240Z,17.60
2022-11-02T21:58:12.711Z,17.60
2022-11-02T22:00:39.375Z,17.50
2022-11-02T22:03:06.055Z,17.50
2022-11-02T22:05:32.766Z,17.50
2022-11-02T22:07:59.233Z,17.50
2022-11-02T22:10:25.720Z,17.50
2022-11-02T22:12:52.201Z,17.50
2022-11-02T22:15:18.678Z,17.50
2022-11-02T22:17:49.641Z,17.50
2022-11-02T22:20:16.566Z,17.50
2022-11-02T22:22:43.060Z,17.60
2022-11-02T22:25:09.555Z,17.50
2022-11-02T22:27:36.048Z,17.60
2022-11-02T22:30:02.550Z,17.60
2022-11-02T22:32:29.066Z,17.70
2022-11-02T22:34:55.539Z,17.80
2022-11-02T22:37:22.034Z,17.70
2022-11-02T22:39:48.516Z,17.70
2022-11-02T22:42:15.054Z,17.60
2022-11-02T22:44:41.525Z,17.60
2022-11-02T22:47:07.988Z,17.70
2022-11-02T22:49:34.469Z,17.70
2022-11-02T22:52:00.950Z,17.70
2022-11-02T22:54:27.414Z,17.50
2022-11-02T22:56:53.918Z,17.50
2022-11-02T22:59:20.378Z,17.50
2022-11-02T23:01:47.041Z,17.50
2022-11-02T23:04:13.601Z,17.60
2022-11-02T23:06:40.101Z,17.60
2022-11-02T23:09:06.559Z,17.70
2022-11-02T23:11:33.053Z,17.80
2022-11-02T23:13:59.518Z,17.70
2022-11-02T23:16:25.995Z,17.70
2022-11-02T23:18:52.470Z,17.70
2022-11-02T23:21:18.935Z,17.70
2022-11-02T23:23:45.426Z,17.70
2022-11-02T23:26:11.898Z,17.70
2022-11-02T23:28:38.377Z,17.60
2022-11-02T23:31:04.854Z,17.60
2022-11-02T23:33:31.345Z,17.50
2022-11-02T23:35:57.825Z,17.50
2022-11-02T23:38:24.311Z,17.50
2022-11-02T23:40:50.769Z,17.50
2022-11-02T23:43:17.253Z,17.50
2022-11-02T23:45:43.733Z,17.60
2022-11-02T23:48:10.286Z,17.70
2022-11-02T23:50:36.801Z,17.70
2022-11-02T23:53:03.453Z,17.70
2022-11-02T23:55:30.219Z,17.70
2022-11-02T23:57:56.956Z,17.70
